Flight Track Log - Related Links

Times and Time Zones

All times are in EDT time to prevent confusion due to time zone crossing. See the CHQ3058 flight status page for this flight to view local times or setup timezone preferences in your user account.

Time Position Orientation Groundspeed Altitude Reporting Facility
EDT Latitude Longitude Course Direction KTS MPH feet Rate Location/Type
Sun 06:41:11 PM 35.2033 -80.9353 99° East 148 170 1,400  Level Atlanta Center
Sun 06:42:54 PM 35.1903 -80.8342 99° East 211 243 5,300 2,305 Climbing Atlanta Center
Sun 06:43:55 PM 35.2219 -80.7692 59° Northeast 242 278 7,700 2,262 Climbing Atlanta Center
Sun 06:44:56 PM 35.2661 -80.7064 49° Northeast 259 298 9,900 1,623 Climbing Atlanta Center
Sun 06:45:57 PM 35.3144 -80.6358 50° Northeast 273 314 11,000 541 Climbing Atlanta Center
Sun 06:46:58 PM 35.3536 -80.5500 61° Northeast 307 353 11,000  Level Atlanta Center
Sun 06:47:59 PM 35.3819 -80.4469 71° East 306 352 11,000  Level Atlanta Center
Sun 06:49:00 PM 35.3921 -80.3605 82° East  Level FlightAware Approximate
Sun 06:56:00 PM 35.5185 -79.7755 74° East  Level FlightAware Approximate
Sun 06:57:00 PM 35.5429 -79.6783 73° East  Level FlightAware Approximate
Sun 06:58:00 PM 35.5673 -79.5810 73° East  Level FlightAware Approximate
Sun 06:59:00 PM 35.5901 -79.4831 76° East  Level FlightAware Approximate
Sun 07:00:00 PM 35.5681 -79.4014 141° Southeast  Level FlightAware Approximate
Sun 07:01:00 PM 35.5039 -79.3372 141° Southeast  Level FlightAware Approximate
Sun 07:02:00 PM 35.4397 -79.2730 141° Southeast  Level FlightAware Approximate
Sun 07:03:00 PM 35.3731 -79.2126 145° Southeast  Level FlightAware Approximate
Sun 07:04:00 PM 35.3053 -79.1545 145° Southeast  Level FlightAware Approximate
Sun 07:05:00 PM 35.2354 -79.1021 141° Southeast  Level FlightAware Approximate
Sun 07:06:00 PM 35.1713 -79.0380 141° Southeast  Level FlightAware Approximate
Sun 07:07:00 PM 35.1021 -78.9844 158° South  Level FlightAware Approximate
Sun 07:08:00 PM 35.0377 -78.9210 141° Southeast  Level FlightAware Approximate
Sun 07:09:00 PM 34.9912 -78.8803 North  Level Estimated
Sun 07:10:00 PM 34.9912 -78.8803 North  Level Estimated
Sun 07:11:00 PM 34.9912 -78.8803 North  Level Estimated

Login

Don't have an account? Register now (free) for customized features, flight alerts, and more!